Time,TemperatureF,DewpointF,PressureIn,WindDirection,WindDirectionDegrees,WindSpeedMPH,WindSpeedGustMPH,Humidity,HourlyPrecipIn,Conditions,Clouds,dailyrainin,SoftwareType,DateUTC
2013-11-11 00:01:00,45.4,24.8,30.12,NE,38,0.0,0.0,44,0.00,,CLR,0.00,VWS V14.01,2013-11-11 08:01:00,
2013-11-11 00:06:00,45.3,25.2,30.12,NE,38,0.0,0.0,45,0.00,,CLR,0.00,VWS V14.01,2013-11-11 08:06:00,
2013-11-11 00:11:00,45.1,25.0,30.11,NE,38,0.0,0.0,45,0.00,,CLR,0.00,VWS V14.01,2013-11-11 08:11:00,
2013-11-11 00:16:00,44.9,24.9,30.11,NE,38,0.0,0.0,45,0.00,,CLR,0.00,VWS V14.01,2013-11-11 08:16:00,
2013-11-11 00:21:00,44.7,25.2,30.11,NE,38,0.0,0.0,46,0.00,,CLR,0.00,VWS V14.01,2013-11-11 08:21:00,
2013-11-11 00:26:00,44.6,25.1,30.11,NE,38,0.0,0.0,46,0.00,,CLR,0.00,VWS V14.01,2013-11-11 08:26:00,
2013-11-11 00:31:00,44.4,24.9,30.12,NE,38,0.0,0.0,46,0.00,,CLR,0.00,VWS V14.01,2013-11-11 08:31:00,
2013-11-11 00:36:00,44.3,25.4,30.11,NE,38,0.0,0.0,47,0.00,,CLR,0.00,VWS V14.01,2013-11-11 08:36:00,
2013-11-11 00:41:00,44.1,25.7,30.11,NE,38,0.0,0.0,48,0.00,,CLR,0.00,VWS V14.01,2013-11-11 08:41:00,
2013-11-11 00:46:00,44.0,25.1,30.11,NE,38,0.0,0.0,47,0.00,,CLR,0.00,VWS V14.01,2013-11-11 08:46:00,
2013-11-11 00:51:00,43.8,25.4,30.11,NE,38,0.0,0.0,48,0.00,,CLR,0.00,VWS V14.01,2013-11-11 08:51:00,
2013-11-11 00:56:00,43.6,25.2,30.11,NE,38,0.0,0.0,48,0.00,,CLR,0.00,VWS V14.01,2013-11-11 08:56:00,
2013-11-11 01:01:00,43.3,25.4,30.11,NE,38,0.0,0.0,49,0.00,,CLR,0.00,VWS V14.01,2013-11-11 09:01:00,
2013-11-11 01:07:00,43.2,25.4,30.11,NE,38,0.0,0.0,49,0.00,,CLR,0.00,VWS V14.01,2013-11-11 09:07:00,
2013-11-11 01:12:00,43.1,25.3,30.11,NE,38,0.0,0.0,49,0.00,,CLR,0.00,VWS V14.01,2013-11-11 09:12:00,
2013-11-11 01:17:00,43.1,25.3,30.11,NE,38,0.0,0.0,49,0.00,,CLR,0.00,VWS V14.01,2013-11-11 09:17:00,
2013-11-11 01:22:00,43.1,25.3,30.11,NE,38,0.0,0.0,49,0.00,,CLR,0.00,VWS V14.01,2013-11-11 09:22:00,
2013-11-11 01:27:00,43.1,24.8,30.12,NE,38,0.0,0.0,48,0.00,,CLR,0.00,VWS V14.01,2013-11-11 09:27:00,
2013-11-11 01:32:00,43.1,25.3,30.12,NE,38,0.0,0.0,49,0.00,,CLR,0.00,VWS V14.01,2013-11-11 09:32:00,
2013-11-11 01:37:00,43.1,25.7,30.11,NE,38,0.0,0.0,50,0.00,,CLR,0.00,VWS V14.01,2013-11-11 09:37:00,
2013-11-11 01:42:00,42.9,25.1,30.12,NE,38,0.0,0.0,49,0.00,,CLR,0.00,VWS V14.01,2013-11-11 09:42:00,
2013-11-11 01:47:00,42.8,25.5,30.12,NE,38,0.0,0.0,50,0.00,,CLR,0.00,VWS V14.01,2013-11-11 09:47:00,
2013-11-11 01:52:00,42.7,24.9,30.12,NE,38,0.0,0.0,49,0.00,,CLR,0.00,VWS V14.01,2013-11-11 09:52:00,
2013-11-11 01:57:00,42.6,25.3,30.12,NE,38,0.0,0.0,50,0.00,,CLR,0.00,VWS V14.01,2013-11-11 09:57:00,
2013-11-11 02:02:00,42.5,25.7,30.11,NE,38,0.0,0.0,51,0.00,,CLR,0.00,VWS V14.01,2013-11-11 10:02:00,
2013-11-11 02:07:00,42.4,25.6,30.12,NE,38,0.0,0.0,51,0.00,,CLR,0.00,VWS V14.01,2013-11-11 10:07:00,
2013-11-11 02:12:00,42.4,25.6,30.12,NE,38,0.0,0.0,51,0.00,,CLR,0.00,VWS V14.01,2013-11-11 10:12:00,
2013-11-11 02:17:00,42.3,25.5,30.12,NE,38,0.0,0.0,51,0.00,,CLR,0.00,VWS V14.01,2013-11-11 10:17:00,
2013-11-11 02:23:00,42.3,25.5,30.11,NE,38,0.0,0.0,51,0.00,,CLR,0.00,VWS V14.01,2013-11-11 10:23:00,
2013-11-11 02:28:00,42.3,25.9,30.11,NE,38,0.0,0.0,52,0.00,,CLR,0.00,VWS V14.01,2013-11-11 10:28:00,
2013-11-11 02:33:00,42.3,25.0,30.11,NE,38,0.0,0.0,50,0.00,,CLR,0.00,VWS V14.01,2013-11-11 10:33:00,
2013-11-11 02:38:00,42.2,25.4,30.11,NE,38,0.0,0.0,51,0.00,,CLR,0.00,VWS V14.01,2013-11-11 10:38:00,
2013-11-11 02:43:00,42.0,25.7,30.11,NE,38,0.0,0.0,52,0.00,,CLR,0.00,VWS V14.01,2013-11-11 10:43:00,
2013-11-11 02:48:00,41.9,26.0,30.11,NE,38,0.0,0.0,53,0.00,,CLR,0.00,VWS V14.01,2013-11-11 10:48:00,
2013-11-11 02:53:00,41.8,25.0,30.11,NE,38,0.0,0.0,51,0.00,,CLR,0.00,VWS V14.01,2013-11-11 10:53:00,
2013-11-11 02:58:00,41.7,25.4,30.11,NE,38,0.0,0.0,52,0.00,,CLR,0.00,VWS V14.01,2013-11-11 10:58:00,
2013-11-11 03:03:00,41.6,25.3,30.11,NE,38,0.0,0.0,52,0.00,,CLR,0.00,VWS V14.01,2013-11-11 11:03:00,
2013-11-11 03:08:00,41.6,25.3,30.11,NE,38,0.0,0.0,52,0.00,,CLR,0.00,VWS V14.01,2013-11-11 11:08:00,
2013-11-11 03:13:00,41.5,25.7,30.11,NE,38,0.0,0.0,53,0.00,,CLR,0.00,VWS V14.01,2013-11-11 11:13:00,
2013-11-11 03:18:00,41.4,25.6,30.11,NE,38,0.0,0.0,53,0.00,,CLR,0.00,VWS V14.01,2013-11-11 11:18:00,
2013-11-11 03:23:00,41.2,25.4,30.11,NE,38,0.0,0.0,53,0.00,,CLR,0.00,VWS V14.01,2013-11-11 11:23:00,
2013-11-11 03:28:00,41.1,25.3,30.11,NE,38,0.0,0.0,53,0.00,,CLR,0.00,VWS V14.01,2013-11-11 11:28:00,
2013-11-11 03:33:00,40.9,25.5,30.11,NE,38,0.0,0.0,54,0.00,,CLR,0.00,VWS V14.01,2013-11-11 11:33:00,
2013-11-11 03:39:00,40.7,25.4,30.11,NE,38,0.0,0.0,54,0.00,,CLR,0.00,VWS V14.01,2013-11-11 11:39:00,
2013-11-11 03:44:00,40.7,25.8,30.11,NE,38,0.0,0.0,55,0.00,,CLR,0.00,VWS V14.01,2013-11-11 11:44:00,
2013-11-11 03:49:00,40.6,25.7,30.12,NE,38,0.0,0.0,55,0.00,,CLR,0.00,VWS V14.01,2013-11-11 11:49:00,
2013-11-11 03:54:00,40.5,25.6,30.12,NE,38,0.0,0.0,55,0.00,,CLR,0.00,VWS V14.01,2013-11-11 11:54:00,
2013-11-11 03:59:00,40.4,25.5,30.12,NE,38,0.0,0.0,55,0.00,,CLR,0.00,VWS V14.01,2013-11-11 11:59:00,
2013-11-11 04:04:00,40.4,26.0,30.12,NE,38,0.0,0.0,56,0.00,,CLR,0.00,VWS V14.01,2013-11-11 12:04:00,
2013-11-11 04:09:00,40.3,25.0,30.12,NE,38,0.0,0.0,54,0.00,,CLR,0.00,VWS V14.01,2013-11-11 12:09:00,
2013-11-11 04:14:00,40.4,26.0,30.12,NE,38,0.0,0.0,56,0.00,,CLR,0.00,VWS V14.01,2013-11-11 12:14:00,
2013-11-11 04:19:00,40.4,26.0,30.12,NE,38,0.0,0.0,56,0.00,,CLR,0.00,VWS V14.01,2013-11-11 12:19:00,
2013-11-11 04:24:00,40.4,26.0,30.12,NE,38,0.0,0.0,56,0.00,,CLR,0.00,VWS V14.01,2013-11-11 12:24:00,
2013-11-11 04:29:00,40.4,26.0,30.12,NE,38,0.0,0.0,56,0.00,,CLR,0.00,VWS V14.01,2013-11-11 12:29:00,
2013-11-11 04:34:00,40.2,25.8,30.12,NE,38,0.0,0.0,56,0.00,,CLR,0.00,VWS V14.01,2013-11-11 12:34:00,
2013-11-11 04:39:00,40.1,25.7,30.12,NE,38,0.0,0.0,56,0.00,,CLR,0.00,VWS V14.01,2013-11-11 12:39:00,
2013-11-11 04:44:00,40.0,26.0,30.12,NE,38,0.0,0.0,57,0.00,,CLR,0.00,VWS V14.01,2013-11-11 12:44:00,
2013-11-11 04:49:00,39.9,25.9,30.13,NE,38,0.0,0.0,57,0.00,,CLR,0.00,VWS V14.01,2013-11-11 12:49:00,
2013-11-11 04:55:00,39.9,26.3,30.12,NE,38,0.0,0.0,58,0.00,,CLR,0.00,VWS V14.01,2013-11-11 12:55:00,
2013-11-11 05:00:00,39.8,26.2,30.13,NE,38,0.0,0.0,58,0.00,,CLR,0.00,VWS V14.01,2013-11-11 13:00:00,
2013-11-11 05:05:00,39.7,26.1,30.12,NE,38,0.0,0.0,58,0.00,,CLR,0.00,VWS V14.01,2013-11-11 13:05:00,
2013-11-11 05:10:00,39.6,26.1,30.13,NE,38,0.0,0.0,58,0.00,,CLR,0.00,VWS V14.01,2013-11-11 13:10:00,
2013-11-11 05:15:00,39.5,26.4,30.13,NE,38,0.0,0.0,59,0.00,,CLR,0.00,VWS V14.01,2013-11-11 13:15:00,
2013-11-11 05:20:00,39.5,26.8,30.13,NE,38,0.0,0.0,60,0.00,,CLR,0.00,VWS V14.01,2013-11-11 13:20:00,
2013-11-11 05:25:00,39.4,26.7,30.13,NE,38,0.0,0.0,60,0.00,,CLR,0.00,VWS V14.01,2013-11-11 13:25:00,
2013-11-11 05:30:00,39.3,26.6,30.14,NE,38,0.0,0.0,60,0.00,,CLR,0.00,VWS V14.01,2013-11-11 13:30:00,
2013-11-11 05:35:00,39.0,26.7,30.14,NE,38,0.0,0.0,61,0.00,,CLR,0.00,VWS V14.01,2013-11-11 13:35:00,
2013-11-11 05:40:00,38.9,26.6,30.14,NE,38,0.0,0.0,61,0.00,,CLR,0.00,VWS V14.01,2013-11-11 13:40:00,
2013-11-11 05:45:00,38.8,26.5,30.14,NE,38,0.0,0.0,61,0.00,,CLR,0.00,VWS V14.01,2013-11-11 13:45:00,
2013-11-11 05:50:00,38.7,26.0,30.14,NE,38,0.0,0.0,60,0.00,,CLR,0.00,VWS V14.01,2013-11-11 13:50:00,
2013-11-11 05:55:00,38.6,25.9,30.14,NE,38,0.0,0.0,60,0.00,,CLR,0.00,VWS V14.01,2013-11-11 13:55:00,
2013-11-11 06:00:00,38.5,25.4,30.14,NE,38,0.0,0.0,59,0.00,,CLR,0.00,VWS V14.01,2013-11-11 14:00:00,
2013-11-11 06:05:00,38.4,24.9,30.14,NE,38,0.0,0.0,58,0.00,,CLR,0.00,VWS V14.01,2013-11-11 14:05:00,
2013-11-11 06:10:00,38.2,25.1,30.15,NE,38,0.0,0.0,59,0.00,,CLR,0.00,VWS V14.01,2013-11-11 14:10:00,
2013-11-11 06:16:00,38.2,25.1,30.14,NE,38,0.0,0.0,59,0.00,,CLR,0.00,VWS V14.01,2013-11-11 14:16:00,
2013-11-11 06:21:00,38.1,25.1,30.15,NE,38,0.0,0.0,59,0.00,,CLR,0.00,VWS V14.01,2013-11-11 14:21:00,
2013-11-11 06:26:00,38.0,25.0,30.15,NE,38,0.0,0.0,59,0.00,,CLR,0.00,VWS V14.01,2013-11-11 14:26:00,
2013-11-11 06:31:00,38.0,26.1,30.15,NE,38,0.0,0.0,62,0.00,,CLR,0.00,VWS V14.01,2013-11-11 14:31:00,
2013-11-11 06:36:00,38.0,26.1,30.15,NE,38,0.0,0.0,62,0.00,,CLR,0.00,VWS V14.01,2013-11-11 14:36:00,
2013-11-11 06:41:00,38.1,26.6,30.15,NE,38,0.0,0.0,63,0.00,,CLR,0.00,VWS V14.01,2013-11-11 14:41:00,
2013-11-11 06:46:00,38.2,27.1,30.15,NE,38,0.0,0.0,64,0.00,,CLR,0.00,VWS V14.01,2013-11-11 14:46:00,
2013-11-11 06:51:00,38.3,26.8,30.16,NE,38,0.0,0.0,63,0.00,,CLR,0.00,VWS V14.01,2013-11-11 14:51:00,
2013-11-11 06:56:00,38.4,26.9,30.16,NE,38,0.0,0.0,63,0.00,,CLR,0.00,VWS V14.01,2013-11-11 14:56:00,
2013-11-11 07:01:00,38.6,27.5,30.16,NE,38,0.0,0.0,64,0.00,,CLR,0.00,VWS V14.01,2013-11-11 15:01:00,
2013-11-11 07:06:00,38.7,27.6,30.16,NE,38,0.0,0.0,64,0.00,,CLR,0.00,VWS V14.01,2013-11-11 15:06:00,
2013-11-11 07:13:00,39.0,27.9,30.16,NE,38,0.0,0.0,64,0.00,,CLR,0.00,VWS V14.01,2013-11-11 15:13:00,
2013-11-11 07:18:00,39.1,28.0,30.16,NE,38,0.0,0.0,64,0.00,,CLR,0.00,VWS V14.01,2013-11-11 15:18:00,
2013-11-11 07:23:00,39.6,28.8,30.16,NE,38,0.0,0.0,65,0.00,,CLR,0.00,VWS V14.01,2013-11-11 15:23:00,
2013-11-11 07:28:00,40.0,28.8,30.17,NE,38,0.0,0.0,64,0.00,,CLR,0.00,VWS V14.01,2013-11-11 15:28:00,
2013-11-11 07:33:00,40.6,29.0,30.17,NE,38,0.0,0.0,63,0.00,,CLR,0.00,VWS V14.01,2013-11-11 15:33:00,
2013-11-11 07:38:00,40.9,28.5,30.17,NE,38,0.0,0.0,61,0.00,,CLR,0.00,VWS V14.01,2013-11-11 15:38:00,
2013-11-11 07:43:00,41.9,26.5,30.18,NE,38,0.0,0.0,54,0.00,,CLR,0.00,VWS V14.01,2013-11-11 15:43:00,
2013-11-11 07:48:00,42.5,26.1,30.17,NE,38,0.0,0.0,52,0.00,,CLR,0.00,VWS V14.01,2013-11-11 15:48:00,
2013-11-11 07:53:00,43.4,25.5,30.17,NE,38,0.0,0.0,49,0.00,,CLR,0.00,VWS V14.01,2013-11-11 15:53:00,
2013-11-11 07:58:00,44.4,24.9,30.17,NE,38,0.0,0.0,46,0.00,,CLR,0.00,VWS V14.01,2013-11-11 15:58:00,
2013-11-11 08:03:00,45.6,25.5,30.17,NE,38,0.0,0.0,45,0.00,,CLR,0.00,VWS V14.01,2013-11-11 16:03:00,
2013-11-11 08:08:00,46.3,24.5,30.18,NE,38,0.0,0.0,42,0.00,,CLR,0.00,VWS V14.01,2013-11-11 16:08:00,
2013-11-11 08:13:00,47.7,23.4,30.18,NE,38,0.0,0.0,38,0.00,,CLR,0.00,VWS V14.01,2013-11-11 16:13:00,
2013-11-11 08:18:00,48.3,23.3,30.18,NE,38,0.0,0.0,37,0.00,,CLR,0.00,VWS V14.01,2013-11-11 16:18:00,
2013-11-11 08:23:00,49.5,24.3,30.18,NE,38,0.0,0.0,37,0.00,,CLR,0.00,VWS V14.01,2013-11-11 16:23:00,
2013-11-11 08:28:00,50.0,23.4,30.18,NE,38,0.0,0.0,35,0.00,,CLR,0.00,VWS V14.01,2013-11-11 16:28:00,
2013-11-11 08:34:00,51.1,23.7,30.18,NE,38,0.0,0.0,34,0.00,,CLR,0.00,VWS V14.01,2013-11-11 16:34:00,
2013-11-11 08:39:00,51.6,23.5,30.18,NE,38,0.0,0.0,33,0.00,,CLR,0.00,VWS V14.01,2013-11-11 16:39:00,
2013-11-11 08:44:00,52.8,23.8,30.18,NE,38,0.0,0.0,32,0.00,,CLR,0.00,VWS V14.01,2013-11-11 16:44:00,
2013-11-11 08:49:00,53.4,23.5,30.18,NE,38,0.0,0.0,31,0.00,,CLR,0.00,VWS V14.01,2013-11-11 16:49:00,
2013-11-11 08:54:00,54.6,23.0,30.19,NE,38,0.0,0.0,29,0.00,,CLR,0.00,VWS V14.01,2013-11-11 16:54:00,
2013-11-11 08:59:00,55.1,24.2,30.19,NE,38,0.0,0.0,30,0.00,,CLR,0.00,VWS V14.01,2013-11-11 16:59:00,
2013-11-11 09:04:00,56.3,24.5,30.19,NE,38,0.0,0.0,29,0.00,,CLR,0.00,VWS V14.01,2013-11-11 17:04:00,
2013-11-11 09:09:00,56.7,24.8,30.19,NE,38,0.0,0.0,29,0.00,,CLR,0.00,VWS V14.01,2013-11-11 17:09:00,
2013-11-11 09:14:00,57.6,25.6,30.19,NE,38,0.0,1.0,29,0.00,,CLR,0.00,VWS V14.01,2013-11-11 17:14:00,
2013-11-11 09:19:00,57.9,25.9,30.19,NE,38,0.0,1.0,29,0.00,,CLR,0.00,VWS V14.01,2013-11-11 17:19:00,
2013-11-11 09:24:00,59.0,26.0,30.19,NE,38,0.0,0.0,28,0.00,,CLR,0.00,VWS V14.01,2013-11-11 17:24:00,
2013-11-11 09:29:00,59.4,26.3,30.19,NE,38,0.0,3.0,28,0.00,,CLR,0.00,VWS V14.01,2013-11-11 17:29:00,
2013-11-11 09:34:00,60.4,25.4,30.19,NE,38,0.0,3.0,26,0.00,,CLR,0.00,VWS V14.01,2013-11-11 17:34:00,
2013-11-11 09:39:00,60.9,26.7,30.19,NE,38,0.0,3.0,27,0.00,,CLR,0.00,VWS V14.01,2013-11-11 17:39:00,
2013-11-11 09:44:00,62.0,23.8,30.19,NE,38,0.0,3.0,23,0.00,,CLR,0.00,VWS V14.01,2013-11-11 17:44:00,
2013-11-11 09:49:00,62.3,23.0,30.19,NE,38,0.0,3.0,22,0.00,,CLR,0.00,VWS V14.01,2013-11-11 17:49:00,
2013-11-11 09:55:00,62.9,23.5,30.19,NE,38,0.0,3.0,22,0.00,,CLR,0.00,VWS V14.01,2013-11-11 17:55:00,
2013-11-11 10:00:00,63.2,24.8,30.19,NE,38,0.0,3.0,23,0.00,,CLR,0.00,VWS V14.01,2013-11-11 18:00:00,
2013-11-11 10:06:00,64.2,23.5,30.19,NE,38,0.0,4.0,21,0.00,,CLR,0.00,VWS V14.01,2013-11-11 18:06:00,
2013-11-11 10:11:00,64.7,23.9,30.19,NE,38,0.0,0.0,21,0.00,,CLR,0.00,VWS V14.01,2013-11-11 18:11:00,
2013-11-11 10:16:00,65.0,23.0,30.18,NE,38,0.0,2.0,20,0.00,,CLR,0.00,VWS V14.01,2013-11-11 18:16:00,
2013-11-11 10:21:00,65.1,25.3,30.18,NE,38,0.0,4.0,22,0.00,,CLR,0.00,VWS V14.01,2013-11-11 18:21:00,
2013-11-11 10:26:00,65.4,24.5,30.18,NE,38,0.0,4.0,21,0.00,,CLR,0.00,VWS V14.01,2013-11-11 18:26:00,
2013-11-11 10:31:00,65.5,22.2,30.18,NE,38,2.0,4.0,19,0.00,,CLR,0.00,VWS V14.01,2013-11-11 18:31:00,
2013-11-11 10:36:00,66.4,24.1,30.18,NE,38,4.0,6.0,20,0.00,,CLR,0.00,VWS V14.01,2013-11-11 18:36:00,
2013-11-11 10:42:00,66.8,22.0,30.18,NE,40,2.0,6.0,18,0.00,,CLR,0.00,VWS V14.01,2013-11-11 18:42:00,
2013-11-11 10:47:00,67.0,23.4,30.18,NE,40,0.0,6.0,19,0.00,,CLR,0.00,VWS V14.01,2013-11-11 18:47:00,
2013-11-11 10:52:00,67.4,22.5,30.18,NE,40,0.0,6.0,18,0.00,,CLR,0.00,VWS V14.01,2013-11-11 18:52:00,
2013-11-11 10:57:00,67.5,22.5,30.18,NE,36,0.0,6.0,18,0.00,,CLR,0.00,VWS V14.01,2013-11-11 18:57:00,
2013-11-11 11:02:00,67.7,24.0,30.17,NE,36,0.0,6.0,19,0.00,,CLR,0.00,VWS V14.01,2013-11-11 19:02:00,
2013-11-11 11:07:00,68.0,23.0,30.17,NE,36,0.0,6.0,18,0.00,,CLR,0.00,VWS V14.01,2013-11-11 19:07:00,
2013-11-11 11:12:00,67.9,22.9,30.17,NE,36,0.0,6.0,18,0.00,,CLR,0.00,VWS V14.01,2013-11-11 19:12:00,
2013-11-11 11:17:00,67.8,24.1,30.16,NE,36,0.0,6.0,19,0.00,,CLR,0.00,VWS V14.01,2013-11-11 19:17:00,
2013-11-11 11:22:00,68.1,23.0,30.16,NE,36,0.0,6.0,18,0.00,,CLR,0.00,VWS V14.01,2013-11-11 19:22:00,
2013-11-11 11:27:00,68.7,23.5,30.16,NE,36,2.0,6.0,18,0.00,,CLR,0.00,VWS V14.01,2013-11-11 19:27:00,
2013-11-11 11:32:00,68.8,22.2,30.16,NNE,33,2.0,6.0,17,0.00,,CLR,0.00,VWS V14.01,2013-11-11 19:32:00,
2013-11-11 11:37:00,68.6,23.4,30.16,NNE,33,2.0,6.0,18,0.00,,CLR,0.00,VWS V14.01,2013-11-11 19:37:00,
2013-11-11 11:43:00,68.6,23.4,30.15,NNE,33,0.0,2.0,18,0.00,,CLR,0.00,VWS V14.01,2013-11-11 19:43:00,
2013-11-11 11:48:00,68.9,23.7,30.14,NNE,33,0.0,2.0,18,0.00,,CLR,0.00,VWS V14.01,2013-11-11 19:48:00,
2013-11-11 11:53:00,69.3,24.0,30.14,NNE,33,0.0,2.0,18,0.00,,CLR,0.00,VWS V14.01,2013-11-11 19:53:00,
2013-11-11 11:58:00,69.8,23.1,30.14,NNE,33,0.0,4.0,17,0.00,,CLR,0.00,VWS V14.01,2013-11-11 19:58:00,
2013-11-11 12:03:00,70.4,26.2,30.14,NNE,33,0.0,4.0,19,0.00,,CLR,0.00,VWS V14.01,2013-11-11 20:03:00,
2013-11-11 12:08:00,70.8,25.2,30.13,NNE,33,0.0,4.0,18,0.00,,CLR,0.00,VWS V14.01,2013-11-11 20:08:00,
2013-11-11 12:13:00,71.2,26.9,30.13,NNE,33,0.0,4.0,19,0.00,,CLR,0.00,VWS V14.01,2013-11-11 20:13:00,
2013-11-11 12:18:00,71.7,24.6,30.13,NNE,33,3.0,4.0,17,0.00,,CLR,0.00,VWS V14.01,2013-11-11 20:18:00,
2013-11-11 12:23:00,72.0,24.8,30.13,NNE,33,0.0,2.0,17,0.00,,CLR,0.00,VWS V14.01,2013-11-11 20:23:00,
2013-11-11 12:28:00,72.3,25.1,30.13,NNE,33,2.0,3.0,17,0.00,,CLR,0.00,VWS V14.01,2013-11-11 20:28:00,
2013-11-11 12:33:00,72.6,23.9,30.13,NNE,33,1.0,3.0,16,0.00,,CLR,0.00,VWS V14.01,2013-11-11 20:33:00,
2013-11-11 12:38:00,72.7,24.0,30.13,NNE,33,0.0,3.0,16,0.00,,CLR,0.00,VWS V14.01,2013-11-11 20:38:00,
2013-11-11 12:43:00,72.6,23.9,30.13,NNE,33,0.0,2.0,16,0.00,,CLR,0.00,VWS V14.01,2013-11-11 20:43:00,
2013-11-11 12:48:00,72.5,23.8,30.12,NNE,33,1.0,4.0,16,0.00,,CLR,0.00,VWS V14.01,2013-11-11 20:48:00,
2013-11-11 12:53:00,72.3,23.6,30.12,NNE,33,0.0,3.0,16,0.00,,CLR,0.00,VWS V14.01,2013-11-11 20:53:00,
2013-11-11 12:59:00,72.0,23.4,30.12,NNE,33,1.0,3.0,16,0.00,,CLR,0.00,VWS V14.01,2013-11-11 20:59:00,
2013-11-11 13:04:00,72.0,23.4,30.12,NNE,30,4.0,7.0,16,0.00,,CLR,0.00,VWS V14.01,2013-11-11 21:04:00,
2013-11-11 13:09:00,72.1,23.5,30.12,NNE,30,0.0,7.0,16,0.00,,CLR,0.00,VWS V14.01,2013-11-11 21:09:00,
2013-11-11 13:14:00,72.1,23.5,30.12,NE,51,5.0,7.0,16,0.00,,CLR,0.00,VWS V14.01,2013-11-11 21:14:00,
2013-11-11 13:19:00,72.1,23.5,30.12,NE,51,0.0,7.0,16,0.00,,CLR,0.00,VWS V14.01,2013-11-11 21:19:00,
2013-11-11 13:24:00,72.0,23.4,30.12,NE,54,0.0,5.0,16,0.00,,CLR,0.00,VWS V14.01,2013-11-11 21:24:00,
2013-11-11 13:29:00,71.9,24.8,30.12,NE,54,0.0,5.0,17,0.00,,CLR,0.00,VWS V14.01,2013-11-11 21:29:00,
2013-11-11 13:34:00,72.0,24.8,30.11,NE,54,0.0,1.0,17,0.00,,CLR,0.00,VWS V14.01,2013-11-11 21:34:00,
2013-11-11 13:39:00,72.1,23.5,30.11,NE,55,2.0,5.0,16,0.00,,CLR,0.00,VWS V14.01,2013-11-11 21:39:00,
2013-11-11 13:44:00,72.2,25.0,30.11,NE,55,1.0,4.0,17,0.00,,CLR,0.00,VWS V14.01,2013-11-11 21:44:00,
2013-11-11 13:49:00,72.4,23.7,30.11,ENE,57,2.0,6.0,16,0.00,,CLR,0.00,VWS V14.01,2013-11-11 21:49:00,
2013-11-11 13:54:00,72.4,23.7,30.11,ENE,57,1.0,5.0,16,0.00,,CLR,0.00,VWS V14.01,2013-11-11 21:54:00,
2013-11-11 13:59:00,72.4,23.7,30.10,ENE,57,1.0,6.0,16,0.00,,CLR,0.00,VWS V14.01,2013-11-11 21:59:00,
2013-11-11 14:05:00,72.4,23.7,30.10,ENE,57,3.0,6.0,16,0.00,,CLR,0.00,VWS V14.01,2013-11-11 22:05:00,
2013-11-11 14:10:00,72.4,25.2,30.10,ENE,58,5.0,6.0,17,0.00,,CLR,0.00,VWS V14.01,2013-11-11 22:10:00,
2013-11-11 14:15:00,72.7,24.0,30.10,ENE,65,8.0,8.0,16,0.00,,CLR,0.00,VWS V14.01,2013-11-11 22:15:00,
2013-11-11 14:20:00,72.8,24.0,30.10,ENE,65,3.0,8.0,16,0.00,,CLR,0.00,VWS V14.01,2013-11-11 22:20:00,
2013-11-11 14:25:00,72.9,24.1,30.10,ENE,65,2.0,3.0,16,0.00,,CLR,0.00,VWS V14.01,2013-11-11 22:25:00,
2013-11-11 14:30:00,72.8,24.0,30.09,ENE,65,1.0,4.0,16,0.00,,CLR,0.00,VWS V14.01,2013-11-11 22:30:00,
2013-11-11 14:35:00,72.7,24.0,30.09,ENE,65,0.0,3.0,16,0.00,,CLR,0.00,VWS V14.01,2013-11-11 22:35:00,
2013-11-11 14:40:00,72.7,24.0,30.09,ENE,65,4.0,4.0,16,0.00,,CLR,0.00,VWS V14.01,2013-11-11 22:40:00,
2013-11-11 14:45:00,72.9,24.1,30.09,ENE,67,2.0,6.0,16,0.00,,CLR,0.00,VWS V14.01,2013-11-11 22:45:00,
2013-11-11 14:50:00,73.0,24.2,30.09,ENE,67,3.0,6.0,16,0.00,,CLR,0.00,VWS V14.01,2013-11-11 22:50:00,
2013-11-11 14:55:00,73.5,24.6,30.09,ENE,71,5.0,7.0,16,0.00,,CLR,0.00,VWS V14.01,2013-11-11 22:55:00,
2013-11-11 15:00:00,73.5,23.1,30.09,ENE,69,5.0,7.0,15,0.00,,CLR,0.00,VWS V14.01,2013-11-11 23:00:00,
2013-11-11 15:06:00,73.7,24.8,30.09,NE,55,4.0,7.0,16,0.00,,CLR,0.00,VWS V14.01,2013-11-11 23:06:00,
2013-11-11 15:11:00,73.7,23.2,30.09,NE,52,2.0,7.0,15,0.00,,CLR,0.00,VWS V14.01,2013-11-11 23:11:00,
2013-11-11 15:16:00,73.8,24.8,30.09,NE,52,1.0,7.0,16,0.00,,CLR,0.00,VWS V14.01,2013-11-11 23:16:00,
2013-11-11 15:21:00,73.8,24.8,30.08,NE,52,4.0,7.0,16,0.00,,CLR,0.00,VWS V14.01,2013-11-11 23:21:00,
2013-11-11 15:26:00,73.7,24.8,30.08,ENE,64,3.0,8.0,16,0.00,,CLR,0.00,VWS V14.01,2013-11-11 23:26:00,
2013-11-11 15:31:00,73.7,23.2,30.08,ENE,67,4.0,8.0,15,0.00,,CLR,0.00,VWS V14.01,2013-11-11 23:31:00,
2013-11-11 15:36:00,73.6,23.1,30.09,ENE,67,2.0,6.0,15,0.00,,CLR,0.00,VWS V14.01,2013-11-11 23:36:00,
2013-11-11 15:41:00,73.6,24.7,30.09,ENE,67,3.0,6.0,16,0.00,,CLR,0.00,VWS V14.01,2013-11-11 23:41:00,
2013-11-11 15:46:00,73.5,24.6,30.09,ENE,67,1.0,6.0,16,0.00,,CLR,0.00,VWS V14.01,2013-11-11 23:46:00,
2013-11-11 15:51:00,73.5,23.1,30.09,ENE,67,2.0,6.0,15,0.00,,CLR,0.00,VWS V14.01,2013-11-11 23:51:00,
2013-11-11 15:56:00,73.3,24.4,30.09,ENE,67,0.0,6.0,16,0.00,,CLR,0.00,VWS V14.01,2013-11-11 23:56:00,
2013-11-11 16:01:00,73.2,25.8,30.09,ENE,67,0.0,6.0,17,0.00,,CLR,0.00,VWS V14.01,2013-11-12 00:01:00,
2013-11-11 16:06:00,72.8,26.9,30.09,ENE,67,0.0,0.0,18,0.00,,CLR,0.00,VWS V14.01,2013-11-12 00:06:00,
2013-11-11 16:11:00,72.6,25.3,30.09,ENE,67,0.0,0.0,17,0.00,,CLR,0.00,VWS V14.01,2013-11-12 00:11:00,
2013-11-11 16:16:00,72.1,26.3,30.09,ENE,67,0.0,0.0,18,0.00,,CLR,0.00,VWS V14.01,2013-11-12 00:16:00,
2013-11-11 16:22:00,72.0,26.2,30.09,ENE,67,0.0,0.0,18,0.00,,CLR,0.00,VWS V14.01,2013-11-12 00:22:00,
2013-11-11 16:27:00,71.5,25.8,30.09,ENE,67,0.0,0.0,18,0.00,,CLR,0.00,VWS V14.01,2013-11-12 00:27:00,
2013-11-11 16:32:00,71.3,27.0,30.09,ENE,67,0.0,0.0,19,0.00,,CLR,0.00,VWS V14.01,2013-11-12 00:32:00,
2013-11-11 16:37:00,70.6,28.8,30.09,ENE,67,0.0,0.0,21,0.00,,CLR,0.00,VWS V14.01,2013-11-12 00:37:00,
2013-11-11 16:42:00,70.3,30.8,30.08,ENE,67,0.0,0.0,23,0.00,,CLR,0.00,VWS V14.01,2013-11-12 00:42:00,
2013-11-11 16:47:00,69.2,31.9,30.08,ENE,67,0.0,0.0,25,0.00,,CLR,0.00,VWS V14.01,2013-11-12 00:47:00,
2013-11-11 16:52:00,68.5,31.3,30.08,ENE,67,0.0,0.0,25,0.00,,CLR,0.00,VWS V14.01,2013-11-12 00:52:00,
2013-11-11 16:57:00,67.7,32.5,30.08,ENE,67,0.0,0.0,27,0.00,,CLR,0.00,VWS V14.01,2013-11-12 00:57:00,
2013-11-11 17:02:00,66.9,31.9,30.09,ENE,67,0.0,0.0,27,0.00,,CLR,0.00,VWS V14.01,2013-11-12 01:02:00,
2013-11-11 17:07:00,66.1,31.2,30.09,ENE,67,0.0,0.0,27,0.00,,CLR,0.00,VWS V14.01,2013-11-12 01:07:00,
2013-11-11 17:12:00,65.4,30.6,30.09,ENE,67,0.0,0.0,27,0.00,,CLR,0.00,VWS V14.01,2013-11-12 01:12:00,
2013-11-11 17:17:00,64.6,29.9,30.10,ENE,67,0.0,0.0,27,0.00,,CLR,0.00,VWS V14.01,2013-11-12 01:17:00,
2013-11-11 17:22:00,64.0,28.5,30.10,ENE,67,0.0,0.0,26,0.00,,CLR,0.00,VWS V14.01,2013-11-12 01:22:00,
2013-11-11 17:27:00,63.5,28.0,30.11,ENE,67,0.0,0.0,26,0.00,,CLR,0.00,VWS V14.01,2013-11-12 01:27:00,
2013-11-11 17:33:00,63.0,28.5,30.11,ENE,67,0.0,0.0,27,0.00,,CLR,0.00,VWS V14.01,2013-11-12 01:33:00,
2013-11-11 17:38:00,62.6,28.2,30.11,ENE,67,0.0,0.0,27,0.00,,CLR,0.00,VWS V14.01,2013-11-12 01:38:00,
2013-11-11 17:43:00,62.1,27.8,30.11,ENE,67,0.0,0.0,27,0.00,,CLR,0.00,VWS V14.01,2013-11-12 01:43:00,
2013-11-11 17:48:00,61.7,27.4,30.12,ENE,67,0.0,0.0,27,0.00,,CLR,0.00,VWS V14.01,2013-11-12 01:48:00,
2013-11-11 17:53:00,61.3,27.1,30.12,ENE,67,0.0,0.0,27,0.00,,CLR,0.00,VWS V14.01,2013-11-12 01:53:00,
2013-11-11 17:58:00,60.9,27.6,30.12,ENE,67,0.0,0.0,28,0.00,,CLR,0.00,VWS V14.01,2013-11-12 01:58:00,
2013-11-11 18:03:00,60.6,27.3,30.12,ENE,67,0.0,1.0,28,0.00,,CLR,0.00,VWS V14.01,2013-11-12 02:03:00,
2013-11-11 18:08:00,60.4,28.0,30.12,ENE,67,0.0,1.0,29,0.00,,CLR,0.00,VWS V14.01,2013-11-12 02:08:00,
2013-11-11 18:13:00,60.1,27.8,30.12,ENE,67,0.0,0.0,29,0.00,,CLR,0.00,VWS V14.01,2013-11-12 02:13:00,
2013-11-11 18:18:00,59.8,28.3,30.12,ENE,67,0.0,0.0,30,0.00,,CLR,0.00,VWS V14.01,2013-11-12 02:18:00,
2013-11-11 18:23:00,59.5,28.1,30.12,ENE,67,0.0,0.0,30,0.00,,CLR,0.00,VWS V14.01,2013-11-12 02:23:00,
2013-11-11 18:28:00,59.1,28.5,30.12,ENE,67,0.0,0.0,31,0.00,,CLR,0.00,VWS V14.01,2013-11-12 02:28:00,
2013-11-11 18:33:00,58.6,28.9,30.12,ENE,67,0.0,0.0,32,0.00,,CLR,0.00,VWS V14.01,2013-11-12 02:33:00,
2013-11-11 18:38:00,58.2,27.7,30.12,ENE,67,0.0,0.0,31,0.00,,CLR,0.00,VWS V14.01,2013-11-12 02:38:00,
2013-11-11 18:43:00,57.8,28.9,30.13,ENE,67,0.0,0.0,33,0.00,,CLR,0.00,VWS V14.01,2013-11-12 02:43:00,
2013-11-11 18:49:00,57.4,27.8,30.13,ENE,67,0.0,0.0,32,0.00,,CLR,0.00,VWS V14.01,2013-11-12 02:49:00,
2013-11-11 18:54:00,57.1,27.5,30.13,ENE,67,0.0,0.0,32,0.00,,CLR,0.00,VWS V14.01,2013-11-12 02:54:00,
2013-11-11 18:59:00,57.0,28.9,30.13,ENE,67,0.0,0.0,34,0.00,,CLR,0.00,VWS V14.01,2013-11-12 02:59:00,
2013-11-11 19:04:00,56.7,28.7,30.13,ENE,67,0.0,0.0,34,0.00,,CLR,0.00,VWS V14.01,2013-11-12 03:04:00,
2013-11-11 19:09:00,56.5,27.8,30.13,ENE,67,0.0,0.0,33,0.00,,CLR,0.00,VWS V14.01,2013-11-12 03:09:00,
2013-11-11 19:14:00,56.3,27.6,30.14,ENE,67,0.0,0.0,33,0.00,,CLR,0.00,VWS V14.01,2013-11-12 03:14:00,
2013-11-11 19:19:00,56.0,28.0,30.13,ENE,67,0.0,0.0,34,0.00,,CLR,0.00,VWS V14.01,2013-11-12 03:19:00,
2013-11-11 19:24:00,55.9,28.0,30.14,ENE,67,0.0,0.0,34,0.00,,CLR,0.00,VWS V14.01,2013-11-12 03:24:00,
2013-11-11 19:29:00,55.6,27.7,30.14,ENE,67,0.0,0.0,34,0.00,,CLR,0.00,VWS V14.01,2013-11-12 03:29:00,
2013-11-11 19:34:00,55.3,27.4,30.15,ENE,67,0.0,0.0,34,0.00,,CLR,0.00,VWS V14.01,2013-11-12 03:34:00,
2013-11-11 19:39:00,55.0,27.9,30.15,ENE,67,0.0,0.0,35,0.00,,CLR,0.00,VWS V14.01,2013-11-12 03:39:00,
2013-11-11 19:44:00,54.6,27.5,30.15,ENE,67,0.0,0.0,35,0.00,,CLR,0.00,VWS V14.01,2013-11-12 03:44:00,
2013-11-11 19:50:00,54.2,27.2,30.15,ENE,67,0.0,0.0,35,0.00,,CLR,0.00,VWS V14.01,2013-11-12 03:50:00,
2013-11-11 19:55:00,53.9,27.6,30.15,ENE,67,0.0,0.0,36,0.00,,CLR,0.00,VWS V14.01,2013-11-12 03:55:00,
2013-11-11 20:00:00,53.7,28.1,30.15,ENE,67,0.0,0.0,37,0.00,,CLR,0.00,VWS V14.01,2013-11-12 04:00:00,
2013-11-11 20:05:00,53.4,27.1,30.16,ENE,67,0.0,0.0,36,0.00,,CLR,0.00,VWS V14.01,2013-11-12 04:05:00,
2013-11-11 20:10:00,53.3,27.0,30.16,ENE,67,0.0,0.0,36,0.00,,CLR,0.00,VWS V14.01,2013-11-12 04:10:00,
2013-11-11 20:15:00,53.2,27.0,30.16,ENE,67,0.0,0.0,36,0.00,,CLR,0.00,VWS V14.01,2013-11-12 04:15:00,
2013-11-11 20:20:00,53.2,27.0,30.15,ENE,67,0.0,0.0,36,0.00,,CLR,0.00,VWS V14.01,2013-11-12 04:20:00,
2013-11-11 20:25:00,53.0,27.4,30.15,ENE,67,0.0,0.0,37,0.00,,CLR,0.00,VWS V14.01,2013-11-12 04:25:00,
2013-11-11 20:30:00,53.0,26.8,30.15,ENE,67,0.0,0.0,36,0.00,,CLR,0.00,VWS V14.01,2013-11-12 04:30:00,
2013-11-11 20:35:00,53.0,26.8,30.15,ENE,67,0.0,0.0,36,0.00,,CLR,0.00,VWS V14.01,2013-11-12 04:35:00,
2013-11-11 20:40:00,53.0,26.1,30.15,ENE,67,0.0,0.0,35,0.00,,CLR,0.00,VWS V14.01,2013-11-12 04:40:00,
2013-11-11 20:45:00,53.1,26.2,30.16,ENE,67,0.0,0.0,35,0.00,,CLR,0.00,VWS V14.01,2013-11-12 04:45:00,
2013-11-11 20:50:00,53.0,27.4,30.16,ENE,67,0.0,0.0,37,0.00,,CLR,0.00,VWS V14.01,2013-11-12 04:50:00,
2013-11-11 20:56:00,52.8,27.3,30.16,ENE,67,0.0,0.0,37,0.00,,CLR,0.00,VWS V14.01,2013-11-12 04:56:00,
2013-11-11 21:01:00,52.6,27.1,30.16,ENE,67,0.0,0.0,37,0.00,,CLR,0.00,VWS V14.01,2013-11-12 05:01:00,
2013-11-11 21:05:00,52.4,26.9,30.16,ENE,67,0.0,0.0,37,0.00,,CLR,0.00,VWS V14.01,2013-11-12 05:05:00,
2013-11-11 21:06:00,52.4,26.9,30.17,ENE,67,0.0,0.0,37,0.00,,CLR,0.00,VWS V14.01,2013-11-12 05:06:00,
2013-11-11 21:07:00,52.3,26.8,30.16,ENE,67,0.0,0.0,37,0.00,,CLR,0.00,VWS V14.01,2013-11-12 05:07:00,
2013-11-11 21:08:00,52.3,26.8,30.16,ENE,67,0.0,0.0,37,0.00,,CLR,0.00,VWS V14.01,2013-11-12 05:08:00,
2013-11-11 21:11:00,52.2,26.7,30.16,ENE,67,0.0,0.0,37,0.00,,CLR,0.00,VWS V14.01,2013-11-12 05:11:00,
2013-11-11 21:16:00,52.1,26.6,30.17,ENE,67,0.0,0.0,37,0.00,,CLR,0.00,VWS V14.01,2013-11-12 05:16:00,
2013-11-11 21:21:00,51.9,26.5,30.16,ENE,67,0.0,0.0,37,0.00,,CLR,0.00,VWS V14.01,2013-11-12 05:21:00,
2013-11-11 21:26:00,51.8,27.0,30.16,ENE,67,0.0,0.0,38,0.00,,CLR,0.00,VWS V14.01,2013-11-12 05:26:00,
2013-11-11 21:31:00,51.6,26.8,30.16,ENE,67,0.0,0.0,38,0.00,,CLR,0.00,VWS V14.01,2013-11-12 05:31:00,
2013-11-11 21:36:00,51.5,27.4,30.16,ENE,67,0.0,0.0,39,0.00,,CLR,0.00,VWS V14.01,2013-11-12 05:36:00,
2013-11-11 21:41:00,51.3,27.8,30.16,ENE,67,0.0,0.0,40,0.00,,CLR,0.00,VWS V14.01,2013-11-12 05:41:00,
2013-11-11 21:46:00,51.2,27.7,30.17,ENE,67,0.0,0.0,40,0.00,,CLR,0.00,VWS V14.01,2013-11-12 05:46:00,
2013-11-11 21:51:00,51.0,28.1,30.17,ENE,67,0.0,0.0,41,0.00,,CLR,0.00,VWS V14.01,2013-11-12 05:51:00,
2013-11-11 21:56:00,50.8,27.4,30.17,ENE,67,0.0,0.0,40,0.00,,CLR,0.00,VWS V14.01,2013-11-12 05:56:00,
2013-11-11 22:01:00,50.5,27.7,30.17,ENE,67,0.0,0.0,41,0.00,,CLR,0.00,VWS V14.01,2013-11-12 06:01:00,
2013-11-11 22:07:00,50.3,26.9,30.17,ENE,67,0.0,0.0,40,0.00,,CLR,0.00,VWS V14.01,2013-11-12 06:07:00,
2013-11-11 22:12:00,50.1,27.3,30.18,ENE,67,0.0,0.0,41,0.00,,CLR,0.00,VWS V14.01,2013-11-12 06:12:00,
2013-11-11 22:17:00,49.9,26.6,30.18,ENE,67,0.0,0.0,40,0.00,,CLR,0.00,VWS V14.01,2013-11-12 06:17:00,
2013-11-11 22:22:00,50.0,26.0,30.18,ENE,67,0.0,0.0,39,0.00,,CLR,0.00,VWS V14.01,2013-11-12 06:22:00,
2013-11-11 22:27:00,50.0,26.0,30.18,ENE,67,0.0,0.0,39,0.00,,CLR,0.00,VWS V14.01,2013-11-12 06:27:00,
2013-11-11 22:32:00,50.0,26.6,30.18,ENE,67,0.0,0.0,40,0.00,,CLR,0.00,VWS V14.01,2013-11-12 06:32:00,
2013-11-11 22:37:00,50.0,26.6,30.18,ENE,67,0.0,0.0,40,0.00,,CLR,0.00,VWS V14.01,2013-11-12 06:37:00,
2013-11-11 22:42:00,49.9,26.0,30.18,ENE,67,0.0,0.0,39,0.00,,CLR,0.00,VWS V14.01,2013-11-12 06:42:00,
2013-11-11 22:47:00,49.9,26.6,30.18,ENE,67,0.0,0.0,40,0.00,,CLR,0.00,VWS V14.01,2013-11-12 06:47:00,
2013-11-11 22:52:00,49.9,26.0,30.18,ENE,67,0.0,0.0,39,0.00,,CLR,0.00,VWS V14.01,2013-11-12 06:52:00,
2013-11-11 22:57:00,49.9,26.0,30.18,ENE,67,0.0,0.0,39,0.00,,CLR,0.00,VWS V14.01,2013-11-12 06:57:00,
2013-11-11 23:03:00,49.9,26.6,30.18,ENE,67,0.0,0.0,40,0.00,,CLR,0.00,VWS V14.01,2013-11-12 07:03:00,
2013-11-11 23:08:00,49.9,26.6,30.18,ENE,67,0.0,0.0,40,0.00,,CLR,0.00,VWS V14.01,2013-11-12 07:08:00,
2013-11-11 23:13:00,49.8,26.5,30.18,ENE,67,0.0,0.0,40,0.00,,CLR,0.00,VWS V14.01,2013-11-12 07:13:00,
2013-11-11 23:18:00,49.7,27.0,30.18,ENE,67,0.0,0.0,41,0.00,,CLR,0.00,VWS V14.01,2013-11-12 07:18:00,
2013-11-11 23:23:00,49.5,26.2,30.18,ENE,67,0.0,0.0,40,0.00,,CLR,0.00,VWS V14.01,2013-11-12 07:23:00,
2013-11-11 23:28:00,49.3,26.6,30.17,ENE,67,0.0,0.0,41,0.00,,CLR,0.00,VWS V14.01,2013-11-12 07:28:00,
2013-11-11 23:33:00,49.1,26.4,30.18,ENE,67,0.0,0.0,41,0.00,,CLR,0.00,VWS V14.01,2013-11-12 07:33:00,
2013-11-11 23:38:00,49.0,26.3,30.18,ENE,67,0.0,0.0,41,0.00,,CLR,0.00,VWS V14.01,2013-11-12 07:38:00,
2013-11-11 23:43:00,48.9,26.8,30.17,ENE,67,0.0,0.0,42,0.00,,CLR,0.00,VWS V14.01,2013-11-12 07:43:00,
2013-11-11 23:48:00,48.8,26.7,30.17,ENE,67,0.0,0.0,42,0.00,,CLR,0.00,VWS V14.01,2013-11-12 07:48:00,
2013-11-11 23:53:00,48.8,26.7,30.17,ENE,67,0.0,0.0,42,0.00,,CLR,0.00,VWS V14.01,2013-11-12 07:53:00,
2013-11-11 23:58:00,48.8,27.3,30.17,ENE,67,0.0,0.0,43,0.00,,CLR,0.00,VWS V14.01,2013-11-12 07:58:00,